createdAt,value
2018-06-04T00:02:28.743Z,17.90
2018-06-04T00:07:22.060Z,17.80
2018-06-04T00:12:15.352Z,17.70
2018-06-04T00:17:08.683Z,17.70
2018-06-04T00:22:02.019Z,17.70
2018-06-04T00:26:55.343Z,17.60
2018-06-04T00:31:48.607Z,17.60
2018-06-04T00:36:41.896Z,17.60
2018-06-04T00:41:35.537Z,17.70
2018-06-04T00:46:28.820Z,17.70
2018-06-04T00:51:22.068Z,17.60
2018-06-04T00:56:23.878Z,17.40
2018-06-04T01:01:17.206Z,17.50
2018-06-04T01:06:10.570Z,17.40
2018-06-04T01:11:03.890Z,17.30
2018-06-04T01:15:57.225Z,17.30
2018-06-04T01:20:50.509Z,17.30
2018-06-04T01:25:43.801Z,17.20
2018-06-04T01:35:30.237Z,17.10
2018-06-04T01:40:23.571Z,17.10
2018-06-04T01:45:16.841Z,17.00
2018-06-04T01:50:10.159Z,17.00
2018-06-04T01:55:03.426Z,17.00
2018-06-04T01:59:56.698Z,17.00
2018-06-04T02:04:50.048Z,17.00
2018-06-04T02:09:43.283Z,17.00
2018-06-04T02:24:22.891Z,16.70
2018-06-04T02:29:16.282Z,16.70
2018-06-04T02:39:03.709Z,16.70
2018-06-04T02:43:57.011Z,16.60
2018-06-04T02:48:50.429Z,16.60
2018-06-04T02:53:43.749Z,16.50
2018-06-04T02:58:37.052Z,16.50
2018-06-04T03:13:16.702Z,16.50
2018-06-04T03:18:10.027Z,15.70
2018-06-04T03:23:03.312Z,16.60
2018-06-04T03:27:56.597Z,16.60
2018-06-04T03:32:50.955Z,16.60
2018-06-04T03:37:44.252Z,16.60
2018-06-04T03:42:37.573Z,16.60
2018-06-04T03:47:30.903Z,16.70
2018-06-04T03:52:24.174Z,16.80
2018-06-04T03:57:17.455Z,16.90
2018-06-04T04:02:10.765Z,17.10
2018-06-04T04:07:04.107Z,17.30
2018-06-04T04:11:57.415Z,17.50
2018-06-04T04:16:50.785Z,17.60
2018-06-04T04:26:37.286Z,17.90
2018-06-04T04:36:23.857Z,18.40
2018-06-04T04:41:17.314Z,18.60
2018-06-04T04:46:10.613Z,18.70
2018-06-04T04:51:03.918Z,19.10
2018-06-04T05:00:50.671Z,22.10
2018-06-04T05:10:37.182Z,25.40
2018-06-04T05:15:30.523Z,25.50
2018-06-04T05:20:23.839Z,26.20
2018-06-04T05:25:17.099Z,26.10
2018-06-04T05:30:10.385Z,25.60
2018-06-04T05:35:03.772Z,26.50
2018-06-04T05:39:57.061Z,26.90
2018-06-04T05:44:50.358Z,27.60
2018-06-04T05:49:43.715Z,29.60
2018-06-04T05:54:37.021Z,30.70
2018-06-04T05:59:30.414Z,30.10
2018-06-04T06:04:23.777Z,31.50
2018-06-04T06:09:17.119Z,30.70
2018-06-04T06:14:10.402Z,31.00
2018-06-04T06:19:03.720Z,31.90
2018-06-04T06:23:57.014Z,33.00
2018-06-04T06:28:50.286Z,34.20
2018-06-04T06:33:43.698Z,33.70
2018-06-04T06:38:37.122Z,32.60
2018-06-04T06:43:30.382Z,32.30
2018-06-04T06:48:23.699Z,32.50
2018-06-04T06:53:16.987Z,33.30
2018-06-04T06:58:10.358Z,35.20
2018-06-04T07:03:03.671Z,37.00
2018-06-04T07:07:56.978Z,36.60
2018-06-04T07:12:50.275Z,36.40
2018-06-04T07:17:43.624Z,36.40
2018-06-04T07:22:36.921Z,34.70
2018-06-04T07:27:30.241Z,35.50
2018-06-04T07:32:23.542Z,34.70
2018-06-04T07:37:16.849Z,34.60
2018-06-04T07:42:10.177Z,35.40
2018-06-04T07:51:56.716Z,38.10
2018-06-04T07:56:50.650Z,37.90
2018-06-04T08:01:44.800Z,38.30
2018-06-04T08:06:38.118Z,37.60
2018-06-04T08:11:31.407Z,37.10
2018-06-04T08:16:24.740Z,36.70
2018-06-04T08:21:18.065Z,35.10
2018-06-04T08:26:11.470Z,36.40
2018-06-04T08:31:04.762Z,38.80
2018-06-04T08:35:58.028Z,37.10
2018-06-04T08:40:52.290Z,36.80
2018-06-04T08:45:45.599Z,37.10
2018-06-04T08:50:38.897Z,37.40
2018-06-04T09:00:25.388Z,37.20
2018-06-04T09:05:18.659Z,37.40
2018-06-04T09:10:11.943Z,37.20
2018-06-04T09:15:06.335Z,37.20
2018-06-04T09:19:59.636Z,37.50
2018-06-04T09:24:53.040Z,36.00
2018-06-04T09:29:46.356Z,33.50
2018-06-04T09:34:39.671Z,33.30
2018-06-04T09:39:33.132Z,35.40
2018-06-04T09:44:26.385Z,35.20
2018-06-04T09:49:19.799Z,35.40
2018-06-04T09:54:13.107Z,35.00
2018-06-04T10:03:59.782Z,32.50
2018-06-04T10:08:53.189Z,33.70
2018-06-04T10:13:46.529Z,33.80
2018-06-04T10:23:33.262Z,32.90
2018-06-04T10:28:26.538Z,32.90
2018-06-04T10:33:19.862Z,32.60
2018-06-04T10:38:14.622Z,32.10
2018-06-04T10:43:07.996Z,32.50
2018-06-04T10:48:01.291Z,31.30
2018-06-04T10:57:47.907Z,30.90
2018-06-04T11:02:41.203Z,31.40
2018-06-04T11:07:34.492Z,31.30
2018-06-04T11:22:14.620Z,30.70
2018-06-04T11:27:07.974Z,30.00
2018-06-04T11:32:01.302Z,29.60
2018-06-04T11:36:54.696Z,29.80
2018-06-04T11:41:47.959Z,30.40
2018-06-04T11:46:41.254Z,30.80
2018-06-04T11:51:34.554Z,30.70
2018-06-04T11:56:27.846Z,30.50
2018-06-04T12:01:21.159Z,30.30
2018-06-04T12:06:14.461Z,30.30
2018-06-04T12:16:01.209Z,31.50
2018-06-04T12:20:54.524Z,31.70
2018-06-04T12:25:47.842Z,31.30
2018-06-04T12:35:34.371Z,30.50
2018-06-04T12:40:27.678Z,30.10
2018-06-04T12:45:20.948Z,30.60
2018-06-04T12:50:14.259Z,30.80
2018-06-04T12:55:07.579Z,30.30
2018-06-04T13:00:00.885Z,29.70
2018-06-04T13:04:54.331Z,29.30
2018-06-04T13:09:47.578Z,29.90
2018-06-04T13:14:40.896Z,30.40
2018-06-04T13:19:34.420Z,30.50
2018-06-04T13:24:27.713Z,30.30
2018-06-04T13:29:21.101Z,30.80
2018-06-04T13:34:14.429Z,31.40
2018-06-04T13:39:08.758Z,31.70
2018-06-04T13:44:02.092Z,31.70
2018-06-04T13:48:55.448Z,31.10
2018-06-04T13:53:48.744Z,30.30
2018-06-04T13:58:42.063Z,29.90
2018-06-04T14:03:35.343Z,29.60
2018-06-04T14:08:28.632Z,29.40
2018-06-04T14:13:22.003Z,29.30
2018-06-04T14:18:15.322Z,29.10
2018-06-04T14:23:08.623Z,28.70
2018-06-04T14:28:01.952Z,28.50
2018-06-04T14:32:55.220Z,28.40
2018-06-04T14:42:41.854Z,28.30
2018-06-04T14:47:35.237Z,28.30
2018-06-04T14:52:28.590Z,28.80
2018-06-04T14:57:21.871Z,29.70
2018-06-04T15:02:15.156Z,29.60
2018-06-04T15:07:08.444Z,28.90
2018-06-04T15:21:48.113Z,28.90
2018-06-04T15:26:41.425Z,29.20
2018-06-04T15:31:34.746Z,28.90
2018-06-04T15:36:28.111Z,28.80
2018-06-04T15:41:21.377Z,29.10
2018-06-04T15:51:07.910Z,28.70
2018-06-04T15:56:01.208Z,28.80
2018-06-04T16:05:47.755Z,28.30
2018-06-04T16:10:41.253Z,28.00
2018-06-04T16:15:34.516Z,27.40
2018-06-04T16:25:21.050Z,27.40
2018-06-04T16:30:14.428Z,27.30
2018-06-04T16:49:48.148Z,27.00
2018-06-04T16:59:34.811Z,26.50
2018-06-04T17:04:28.053Z,26.40
2018-06-04T17:09:21.486Z,26.50
2018-06-04T17:14:14.775Z,26.70
2018-06-04T17:19:08.245Z,26.80
2018-06-04T17:24:01.591Z,27.00
2018-06-04T17:33:48.292Z,26.30
2018-06-04T17:38:41.597Z,26.10
2018-06-04T17:43:34.996Z,26.20
2018-06-04T17:53:21.542Z,25.90
2018-06-04T18:08:01.502Z,25.40
2018-06-04T18:12:54.853Z,25.40
2018-06-04T18:22:41.466Z,25.10
2018-06-04T18:32:28.197Z,24.70
2018-06-04T18:37:21.620Z,24.60
2018-06-04T18:42:14.969Z,24.40
2018-06-04T18:47:08.510Z,24.40
2018-06-04T18:52:01.876Z,24.20
2018-06-04T18:56:55.258Z,24.20
2018-06-04T19:01:48.670Z,24.10
2018-06-04T19:06:42.098Z,24.00
2018-06-04T19:11:36.236Z,23.90
2018-06-04T19:16:29.586Z,23.80
2018-06-04T19:21:23.053Z,23.60
2018-06-04T19:31:09.659Z,23.40
2018-06-04T19:36:03.019Z,23.30
2018-06-04T19:40:56.323Z,23.10
2018-06-04T19:45:49.967Z,23.00
2018-06-04T19:50:43.299Z,23.00
2018-06-04T19:55:36.754Z,22.80
2018-06-04T20:00:30.264Z,22.70
2018-06-04T20:05:23.586Z,22.50
2018-06-04T20:10:16.907Z,22.40
2018-06-04T20:15:10.239Z,22.20
2018-06-04T20:20:04.948Z,22.00
2018-06-04T20:24:58.281Z,22.00
2018-06-04T20:29:51.692Z,21.90
2018-06-04T20:34:44.976Z,21.90
2018-06-04T20:39:38.280Z,21.70
2018-06-04T20:44:31.597Z,21.60
2018-06-04T20:54:18.230Z,21.30
2018-06-04T20:59:11.535Z,21.20
2018-06-04T21:08:58.126Z,21.10
2018-06-04T21:13:51.447Z,21.10
2018-06-04T21:18:44.800Z,20.90
2018-06-04T21:23:38.084Z,20.90
2018-06-04T21:28:31.574Z,20.80
2018-06-04T21:33:24.989Z,20.70
2018-06-04T21:38:18.273Z,20.60
2018-06-04T21:43:11.564Z,20.40
2018-06-04T21:48:04.923Z,20.30
2018-06-04T21:52:58.248Z,20.40
2018-06-04T21:57:51.729Z,20.30
2018-06-04T22:02:45.058Z,20.20
2018-06-04T22:07:38.699Z,20.10
2018-06-04T22:12:32.036Z,20.00
2018-06-04T22:17:25.408Z,20.00
2018-06-04T22:22:18.728Z,19.90
2018-06-04T22:27:12.175Z,19.80
2018-06-04T22:32:05.679Z,19.70
2018-06-04T22:36:59.000Z,19.60
2018-06-04T22:41:52.373Z,19.60
2018-06-04T22:46:45.695Z,19.60
2018-06-04T22:51:39.150Z,19.50
2018-06-04T22:56:32.433Z,19.30
2018-06-04T23:01:25.809Z,19.30
2018-06-04T23:06:19.148Z,19.20
2018-06-04T23:11:12.462Z,19.10
2018-06-04T23:16:05.837Z,19.00
2018-06-04T23:20:59.104Z,19.00
2018-06-04T23:25:52.470Z,18.80
2018-06-04T23:30:45.739Z,18.80
2018-06-04T23:35:39.152Z,18.60
2018-06-04T23:40:32.449Z,18.60
2018-06-04T23:45:25.735Z,18.50
2018-06-04T23:50:18.984Z,18.40
2018-06-04T23:55:12.280Z,18.30
